Rockvale, Tennessee
Current Conditions -  °F | °C
As of 10:53 AM on Thursday 23 Oct 2014 (Local Time) from KBNA Reporting Station
Few Clouds Few Clouds  
Wind Chill: 56°   Ceiling: Unl
Heat Index: 56°   Visibility: 10mi
Dew Point: 41°   Wind: 9mph
Humidity: 57%   Direction: 90°E
Pressure: 30.23"   Gusts: NA
Location:  35.76°N, 86.53°W
Report Text: KBNA 231553Z 09008KT 10SM FEW230 13/05 A3023 RMK AO2 SLP235 T01330050
Loading
Personal Weather Stations






























Interactive Weather Map
Tropical Storm Tracking
New forecast layout! Learn more

10-Day Weather Forecast

Advertisements
Track Severe Weather on mobile